createdAt,value
2022-12-08T00:00:19.571Z,99775.67
2022-12-08T00:03:44.578Z,99771.44
2022-12-08T00:07:07.880Z,99769.42
2022-12-08T00:10:46.577Z,99778.19
2022-12-08T00:13:38.799Z,99783.83
2022-12-08T00:16:44.336Z,99791.95
2022-12-08T00:19:50.553Z,99793.39
2022-12-08T00:22:55.851Z,99791.13
2022-12-08T00:26:04.463Z,99793.42
2022-12-08T00:29:14.480Z,99793.36
2022-12-08T00:32:22.484Z,99794.48
2022-12-08T00:35:27.828Z,99800.20
2022-12-08T00:38:33.247Z,99799.46
2022-12-08T00:41:56.097Z,99802.50
2022-12-08T00:45:01.649Z,99800.77
2022-12-08T00:48:07.622Z,99804.65
2022-12-08T00:51:13.156Z,99804.57
2022-12-08T00:54:18.477Z,99808.41
2022-12-08T00:57:23.925Z,99809.05
2022-12-08T01:00:29.518Z,99813.29
2022-12-08T01:03:34.915Z,99818.26
2022-12-08T01:06:40.696Z,99823.13
2022-12-08T01:09:46.125Z,99824.83
2022-12-08T01:12:51.457Z,99827.23
2022-12-08T01:15:56.746Z,99828.83
2022-12-08T01:19:02.379Z,99828.85
2022-12-08T01:22:07.592Z,99827.29
2022-12-08T01:25:13.580Z,99829.29
2022-12-08T01:28:20.443Z,99833.81
2022-12-08T01:31:25.919Z,99830.23
2022-12-08T01:34:31.310Z,99833.04
2022-12-08T01:37:36.779Z,99829.83
2022-12-08T01:40:42.222Z,99832.75
2022-12-08T01:43:57.462Z,99833.72
2022-12-08T01:47:03.178Z,99835.52
2022-12-08T01:50:11.628Z,99838.40
2022-12-08T01:53:19.084Z,99837.08
2022-12-08T01:56:29.061Z,99839.98
2022-12-08T01:59:36.655Z,99839.41
2022-12-08T02:02:47.751Z,99843.45
2022-12-08T02:05:53.584Z,99843.00
2022-12-08T02:08:59.194Z,99842.12
2022-12-08T02:12:05.014Z,99843.24
2022-12-08T02:15:11.200Z,99846.66
2022-12-08T02:18:22.924Z,99846.89
2022-12-08T02:21:30.387Z,99851.65
2022-12-08T02:24:38.453Z,99850.71
2022-12-08T02:27:49.160Z,99849.48
2022-12-08T02:30:59.340Z,99851.88
2022-12-08T02:34:09.745Z,99855.33
2022-12-08T02:37:20.117Z,99859.07
2022-12-08T02:40:29.791Z,99862.42
2022-12-08T02:43:38.694Z,99861.46
2022-12-08T02:46:46.375Z,99860.61
2022-12-08T02:49:51.895Z,99865.08
2022-12-08T02:52:57.629Z,99863.95
2022-12-08T02:56:04.767Z,99863.16
2022-12-08T02:59:16.225Z,99855.06
2022-12-08T03:02:31.005Z,99850.23
2022-12-08T03:05:48.026Z,99849.98
2022-12-08T03:08:56.765Z,99845.23
2022-12-08T03:12:06.040Z,99840.70
2022-12-08T03:15:15.464Z,99838.13
2022-12-08T03:18:24.776Z,99831.24
2022-12-08T03:21:31.017Z,99833.23
2022-12-08T03:24:38.053Z,99835.66
2022-12-08T03:27:46.132Z,99837.05
2022-12-08T03:30:53.919Z,99833.86
2022-12-08T03:34:00.723Z,99835.13
2022-12-08T03:37:06.129Z,99839.92
2022-12-08T03:40:15.067Z,99842.30
2022-12-08T03:43:20.427Z,99834.26
2022-12-08T03:49:31.369Z,99832.23
2022-12-08T03:52:39.170Z,99831.76
2022-12-08T03:55:44.766Z,99829.25
2022-12-08T03:58:50.013Z,99824.02
2022-12-08T04:01:55.468Z,99828.14
2022-12-08T04:05:01.254Z,99829.05
2022-12-08T04:08:06.885Z,99831.67
2022-12-08T04:11:12.570Z,99829.28
2022-12-08T04:14:18.023Z,99829.35
2022-12-08T04:17:23.290Z,99823.10
2022-12-08T04:20:28.542Z,99821.03
2022-12-08T04:23:33.962Z,99824.60
2022-12-08T04:26:39.408Z,99818.14
2022-12-08T04:29:44.626Z,99816.87
2022-12-08T04:32:49.907Z,99813.35
2022-12-08T04:35:55.225Z,99814.06
2022-12-08T04:39:01.340Z,99812.27
2022-12-08T04:42:06.800Z,99811.21
2022-12-08T04:45:12.626Z,99808.41
2022-12-08T04:48:17.879Z,99806.70
2022-12-08T04:51:23.242Z,99804.29
2022-12-08T04:54:28.786Z,99801.90
2022-12-08T04:57:34.176Z,99796.95
2022-12-08T05:00:39.584Z,99803.36
2022-12-08T05:03:44.962Z,99802.57
2022-12-08T05:06:50.324Z,99801.21
2022-12-08T05:09:55.680Z,99805.66
2022-12-08T05:13:01.622Z,99805.30
2022-12-08T05:16:08.653Z,99801.70
2022-12-08T05:19:14.828Z,99798.46
2022-12-08T05:22:20.323Z,99796.20
2022-12-08T05:25:25.694Z,99793.18
2022-12-08T05:28:46.346Z,99790.86
2022-12-08T05:31:51.755Z,99782.17
2022-12-08T05:34:57.097Z,99781.55
2022-12-08T05:38:02.471Z,99786.09
2022-12-08T05:41:08.643Z,99790.02
2022-12-08T05:44:14.052Z,99786.19
2022-12-08T05:47:19.396Z,99786.20
2022-12-08T05:50:24.860Z,99786.88
2022-12-08T05:53:33.714Z,99784.81
2022-12-08T05:56:39.076Z,99781.67
2022-12-08T05:59:44.343Z,99781.25
2022-12-08T06:02:49.742Z,99778.40
2022-12-08T06:05:56.266Z,99778.52
2022-12-08T06:09:02.853Z,99779.16
2022-12-08T06:12:08.764Z,99775.09
2022-12-08T06:15:14.146Z,99775.30
2022-12-08T06:18:19.470Z,99779.72
2022-12-08T06:21:24.862Z,99781.77
2022-12-08T06:24:30.520Z,99777.42
2022-12-08T06:27:36.048Z,99771.39
2022-12-08T06:30:41.488Z,99774.39
2022-12-08T06:33:47.452Z,99770.32
2022-12-08T06:36:53.022Z,99767.78
2022-12-08T06:39:58.486Z,99766.35
2022-12-08T06:43:03.919Z,99770.78
2022-12-08T06:46:10.198Z,99767.73
2022-12-08T06:49:15.569Z,99766.16
2022-12-08T06:52:20.959Z,99773.21
2022-12-08T06:55:57.477Z,99776.02
2022-12-08T06:58:52.982Z,99772.96
2022-12-08T07:01:58.695Z,99774.77
2022-12-08T07:05:04.598Z,99772.73
2022-12-08T07:08:10.205Z,99772.90
2022-12-08T07:11:21.204Z,99770.88
2022-12-08T07:14:27.841Z,99772.05
2022-12-08T07:17:33.419Z,99770.77
2022-12-08T07:20:38.856Z,99770.61
2022-12-08T07:23:46.108Z,99761.98
2022-12-08T07:26:51.682Z,99761.63
2022-12-08T07:29:57.098Z,99758.90
2022-12-08T07:33:04.714Z,99760.39
2022-12-08T07:36:10.757Z,99755.40
2022-12-08T07:39:16.106Z,99753.73
2022-12-08T07:42:21.646Z,99755.33
2022-12-08T07:45:31.452Z,99752.50
2022-12-08T07:48:37.638Z,99747.02
2022-12-08T07:51:43.178Z,99744.16
2022-12-08T07:54:48.599Z,99743.64
2022-12-08T07:57:53.969Z,99746.75
2022-12-08T08:00:59.487Z,99742.06
2022-12-08T08:04:05.764Z,99740.80
2022-12-08T08:07:12.863Z,99742.34
2022-12-08T08:10:19.136Z,99739.80
2022-12-08T08:13:24.579Z,99737.48
2022-12-08T08:16:34.954Z,99739.58
2022-12-08T08:19:43.777Z,99737.20
2022-12-08T08:22:52.314Z,99735.95
2022-12-08T08:26:02.622Z,99734.37
2022-12-08T08:29:08.187Z,99734.45
2022-12-08T08:32:13.696Z,99732.48
2022-12-08T08:35:19.102Z,99734.17
2022-12-08T08:38:25.180Z,99733.96
2022-12-08T08:41:30.509Z,99731.16
2022-12-08T08:44:37.555Z,99731.87
2022-12-08T08:47:43.044Z,99734.44
2022-12-08T08:50:48.513Z,99736.88
2022-12-08T08:53:54.193Z,99734.98
2022-12-08T08:57:00.484Z,99736.17
2022-12-08T09:00:07.516Z,99734.88
2022-12-08T09:03:13.919Z,99728.81
2022-12-08T09:06:20.267Z,99730.65
2022-12-08T09:09:25.743Z,99733.20
2022-12-08T09:12:31.137Z,99731.96
2022-12-08T09:15:36.497Z,99733.98
2022-12-08T09:18:42.001Z,99734.30
2022-12-08T09:21:49.878Z,99726.86
2022-12-08T09:24:55.272Z,99719.88
2022-12-08T09:28:00.654Z,99713.43
2022-12-08T09:31:06.020Z,99718.48
2022-12-08T09:34:13.310Z,99710.13
2022-12-08T09:37:21.055Z,99707.55
2022-12-08T09:40:27.990Z,99706.66
2022-12-08T09:43:46.608Z,99699.48
2022-12-08T09:46:53.469Z,99695.92
2022-12-08T09:50:07.960Z,99700.25
2022-12-08T09:53:17.120Z,99698.61
2022-12-08T09:56:24.694Z,99693.94
2022-12-08T09:59:33.137Z,99695.02
2022-12-08T10:02:41.020Z,99692.63
2022-12-08T10:05:48.362Z,99691.16
2022-12-08T10:09:00.187Z,99691.66
2022-12-08T10:12:11.266Z,99691.67
2022-12-08T10:15:27.824Z,99693.75
2022-12-08T10:18:35.155Z,99682.20
2022-12-08T10:21:41.939Z,99678.39
2022-12-08T10:24:52.443Z,99677.20
2022-12-08T10:27:59.611Z,99676.67
2022-12-08T10:31:05.660Z,99678.29
2022-12-08T10:34:15.772Z,99683.27
2022-12-08T10:37:21.393Z,99681.02
2022-12-08T10:40:28.663Z,99677.61
2022-12-08T10:43:34.244Z,99679.59
2022-12-08T10:46:39.751Z,99677.79
2022-12-08T10:49:48.116Z,99680.45
2022-12-08T10:52:58.248Z,99678.86
2022-12-08T10:56:16.131Z,99675.62
2022-12-08T10:59:21.664Z,99672.95
2022-12-08T11:02:27.165Z,99672.51
2022-12-08T11:05:34.767Z,99676.34
2022-12-08T11:08:47.732Z,99674.80
2022-12-08T11:11:53.835Z,99675.86
2022-12-08T11:15:03.367Z,99674.24
2022-12-08T11:18:24.619Z,99674.20
2022-12-08T11:21:35.895Z,99672.64
2022-12-08T11:24:41.297Z,99671.94
2022-12-08T11:27:48.674Z,99672.09
2022-12-08T11:30:58.807Z,99670.93
2022-12-08T11:34:07.897Z,99668.69
2022-12-08T11:37:18.727Z,99663.03
2022-12-08T11:40:26.478Z,99660.79
2022-12-08T11:43:37.428Z,99663.58
2022-12-08T11:46:44.987Z,99665.45
2022-12-08T11:49:56.939Z,99661.04
2022-12-08T11:53:02.854Z,99655.09
2022-12-08T11:56:13.025Z,99650.16
2022-12-08T11:59:21.024Z,99645.80
2022-12-08T12:02:29.044Z,99643.17
2022-12-08T12:09:12.981Z,99641.38
2022-12-08T12:12:27.481Z,99640.80
2022-12-08T12:15:49.746Z,99640.73
2022-12-08T12:19:00.572Z,99632.27
2022-12-08T12:22:13.533Z,99631.10
2022-12-08T12:25:23.773Z,99621.10
2022-12-08T12:28:30.676Z,99626.30
2022-12-08T12:31:37.982Z,99620.13
2022-12-08T12:34:49.676Z,99623.09
2022-12-08T12:37:57.541Z,99623.41
2022-12-08T12:41:04.070Z,99622.26
2022-12-08T12:44:24.116Z,99623.02
2022-12-08T12:47:43.182Z,99612.75
2022-12-08T12:50:49.195Z,99613.04
2022-12-08T12:53:54.722Z,99615.58
2022-12-08T12:57:17.818Z,99609.80
2022-12-08T13:00:24.932Z,99613.02
2022-12-08T13:03:30.411Z,99612.73
2022-12-08T13:06:41.573Z,99616.02
2022-12-08T13:09:47.297Z,99608.84
2022-12-08T13:13:07.243Z,99609.38
2022-12-08T13:16:19.727Z,99610.77
2022-12-08T13:19:25.926Z,99614.21
2022-12-08T13:22:48.794Z,99618.63
2022-12-08T13:26:09.352Z,99614.98
2022-12-08T13:29:22.829Z,99610.73
2022-12-08T13:33:16.787Z,99609.08
2022-12-08T13:36:27.932Z,99605.69
2022-12-08T13:39:38.169Z,99606.19
2022-12-08T13:42:50.236Z,99612.81
2022-12-08T13:59:55.134Z,99606.76
2022-12-08T14:03:02.109Z,99602.14
2022-12-08T14:06:12.931Z,99600.27
2022-12-08T14:09:20.331Z,99594.52
2022-12-08T14:12:27.670Z,99595.98
2022-12-08T14:15:38.354Z,99594.14
2022-12-08T14:18:44.219Z,99589.94
2022-12-08T14:21:52.566Z,99595.41
2022-12-08T14:25:00.459Z,99593.66
2022-12-08T14:28:06.400Z,99596.17
2022-12-08T14:31:15.066Z,99595.83
2022-12-08T14:34:20.738Z,99592.30
2022-12-08T14:37:28.239Z,99595.30
2022-12-08T14:40:35.395Z,99595.38
2022-12-08T14:43:43.118Z,99600.48
2022-12-08T14:47:05.440Z,99596.95
2022-12-08T14:50:26.503Z,99597.79
2022-12-08T14:53:37.110Z,99597.86
2022-12-08T14:56:48.723Z,99596.83
2022-12-08T14:59:54.192Z,99600.59
2022-12-08T15:03:07.042Z,99597.73
2022-12-08T15:06:13.264Z,99600.52
2022-12-08T15:09:28.929Z,99605.42
2022-12-08T15:12:34.596Z,99606.02
2022-12-08T15:15:50.378Z,99602.36
2022-12-08T15:19:04.974Z,99601.27
2022-12-08T15:22:18.818Z,99601.11
2022-12-08T15:25:24.942Z,99598.63
2022-12-08T15:28:30.840Z,99599.34
2022-12-08T15:31:36.664Z,99597.23
2022-12-08T15:34:42.179Z,99594.38
2022-12-08T15:37:47.889Z,99588.35
2022-12-08T15:40:53.804Z,99582.34
2022-12-08T15:43:59.188Z,99589.50
2022-12-08T15:47:04.665Z,99585.76
2022-12-08T15:50:15.241Z,99586.08
2022-12-08T15:53:20.964Z,99586.81
2022-12-08T15:56:29.009Z,99592.15
2022-12-08T15:59:37.080Z,99591.36
2022-12-08T16:03:13.175Z,99595.75
2022-12-08T16:09:40.398Z,99586.50
2022-12-08T16:16:31.237Z,99582.77
2022-12-08T16:19:37.096Z,99579.11
2022-12-08T16:23:07.927Z,99578.16
2022-12-08T16:29:37.302Z,99576.23
2022-12-08T16:32:42.872Z,99577.29
2022-12-08T16:35:48.463Z,99577.65
2022-12-08T16:38:53.941Z,99578.91
2022-12-08T16:42:16.766Z,99579.27
2022-12-08T16:45:23.800Z,99578.46
2022-12-08T16:48:29.517Z,99582.63
2022-12-08T16:51:34.944Z,99591.27
2022-12-08T16:54:40.401Z,99584.52
2022-12-08T16:57:46.982Z,99579.83
2022-12-08T17:00:52.888Z,99576.32
2022-12-08T17:04:29.805Z,99574.76
2022-12-08T17:07:23.954Z,99574.77
2022-12-08T17:10:31.722Z,99576.12
2022-12-08T17:13:37.596Z,99579.04
2022-12-08T17:16:43.501Z,99581.14
2022-12-08T17:19:49.102Z,99585.10
2022-12-08T17:22:55.945Z,99576.02
2022-12-08T17:26:02.019Z,99582.77
2022-12-08T17:29:07.473Z,99577.98
2022-12-08T17:32:13.207Z,99571.15
2022-12-08T17:35:19.703Z,99570.42
2022-12-08T17:38:25.299Z,99569.81
2022-12-08T17:41:31.206Z,99577.04
2022-12-08T17:44:36.763Z,99576.98
2022-12-08T17:47:42.194Z,99581.79
2022-12-08T17:50:47.902Z,99581.41
2022-12-08T17:53:53.054Z,99581.24
2022-12-08T17:56:59.149Z,99588.20
2022-12-08T18:00:05.625Z,99588.05
2022-12-08T18:03:17.354Z,99589.65
2022-12-08T18:06:25.691Z,99591.58
2022-12-08T18:09:33.835Z,99594.10
2022-12-08T18:12:39.487Z,99592.88
2022-12-08T18:15:45.435Z,99594.44
2022-12-08T18:18:51.305Z,99597.44
2022-12-08T18:21:56.587Z,99602.18
2022-12-08T18:25:02.026Z,99607.04
2022-12-08T18:28:07.598Z,99609.18
2022-12-08T18:31:14.608Z,99611.10
2022-12-08T18:34:20.116Z,99612.73
2022-12-08T18:37:25.602Z,99612.56
2022-12-08T18:40:32.450Z,99619.08
2022-12-08T18:43:38.388Z,99623.14
2022-12-08T18:46:44.320Z,99623.88
2022-12-08T18:49:49.687Z,99624.11
2022-12-08T18:52:55.346Z,99621.30
2022-12-08T18:56:00.674Z,99623.09
2022-12-08T18:59:07.239Z,99626.55
2022-12-08T19:02:13.009Z,99626.59
2022-12-08T19:05:18.646Z,99628.46
2022-12-08T19:08:29.714Z,99627.96
2022-12-08T19:11:39.148Z,99629.36
2022-12-08T19:14:44.638Z,99634.16
2022-12-08T19:17:50.150Z,99630.52
2022-12-08T19:20:56.990Z,99625.82
2022-12-08T19:24:03.898Z,99625.85
2022-12-08T19:27:09.213Z,99628.58
2022-12-08T19:30:16.634Z,99630.80
2022-12-08T19:33:22.454Z,99628.38
2022-12-08T19:36:30.734Z,99631.70
2022-12-08T19:39:54.227Z,99627.43
2022-12-08T19:43:17.314Z,99632.91
2022-12-08T19:46:22.834Z,99633.59
2022-12-08T19:49:31.069Z,99641.91
2022-12-08T19:52:36.721Z,99643.42
2022-12-08T19:55:42.903Z,99642.33
2022-12-08T19:58:48.424Z,99641.95
2022-12-08T20:01:55.995Z,99641.94
2022-12-08T20:05:02.122Z,99646.06
2022-12-08T20:08:08.510Z,99645.33
2022-12-08T20:11:14.035Z,99642.77
2022-12-08T20:14:19.556Z,99650.59
2022-12-08T20:17:25.047Z,99657.79
2022-12-08T20:20:30.498Z,99659.00
2022-12-08T20:23:36.241Z,99662.10
2022-12-08T20:26:41.592Z,99666.98
2022-12-08T20:29:46.843Z,99672.91
2022-12-08T20:32:52.470Z,99672.02
2022-12-08T20:36:01.439Z,99669.80
2022-12-08T20:39:10.239Z,99666.92
2022-12-08T20:42:15.811Z,99669.00
2022-12-08T20:45:23.450Z,99666.60
2022-12-08T20:48:28.903Z,99669.80
2022-12-08T20:51:34.644Z,99675.73
2022-12-08T20:54:40.079Z,99676.67
2022-12-08T20:57:45.521Z,99679.66
2022-12-08T21:00:51.510Z,99680.80
2022-12-08T21:03:57.242Z,99681.37
2022-12-08T21:07:03.153Z,99686.34
2022-12-08T21:10:10.264Z,99688.63
2022-12-08T21:13:16.764Z,99690.17
2022-12-08T21:16:22.171Z,99690.20
2022-12-08T21:19:27.553Z,99697.83
2022-12-08T21:22:33.079Z,99694.88
2022-12-08T21:25:42.332Z,99697.38
2022-12-08T21:28:58.909Z,99692.45
2022-12-08T21:32:04.366Z,99690.23
2022-12-08T21:35:10.850Z,99694.16
2022-12-08T21:38:16.463Z,99698.19
2022-12-08T21:41:42.969Z,99700.14
2022-12-08T21:44:48.582Z,99698.13
2022-12-08T21:47:54.952Z,99689.84
2022-12-08T21:51:04.462Z,99689.56
2022-12-08T21:54:15.016Z,99696.41
2022-12-08T21:57:24.634Z,99696.27
2022-12-08T22:00:29.952Z,99697.84
2022-12-08T22:03:35.340Z,99694.38
2022-12-08T22:06:41.223Z,99696.63
2022-12-08T22:09:47.405Z,99695.70
2022-12-08T22:12:54.273Z,99695.64
2022-12-08T22:16:00.597Z,99691.73
2022-12-08T22:19:06.416Z,99692.48
2022-12-08T22:22:12.128Z,99696.45
2022-12-08T22:25:18.889Z,99698.31
2022-12-08T22:28:24.612Z,99698.63
2022-12-08T22:31:30.148Z,99696.39
2022-12-08T22:34:35.856Z,99693.49
2022-12-08T22:37:41.889Z,99690.47
2022-12-08T22:40:47.620Z,99691.28
2022-12-08T22:43:52.894Z,99698.27
2022-12-08T22:46:58.403Z,99703.58
2022-12-08T22:50:04.491Z,99707.30
2022-12-08T22:53:10.958Z,99712.54
2022-12-08T22:56:16.684Z,99714.70
2022-12-08T22:59:22.168Z,99713.30
2022-12-08T23:02:27.788Z,99710.98
2022-12-08T23:05:35.112Z,99709.60
2022-12-08T23:08:41.046Z,99712.70
2022-12-08T23:11:46.502Z,99721.71
2022-12-08T23:14:52.209Z,99717.90
2022-12-08T23:17:58.013Z,99715.73
2022-12-08T23:21:05.714Z,99716.23
2022-12-08T23:24:11.317Z,99717.31
2022-12-08T23:27:16.662Z,99711.86
2022-12-08T23:30:26.175Z,99708.38
2022-12-08T23:33:31.884Z,99711.13
2022-12-08T23:36:38.074Z,99717.08
2022-12-08T23:39:44.086Z,99723.11
2022-12-08T23:42:50.082Z,99722.26
2022-12-08T23:45:56.089Z,99723.92
2022-12-08T23:49:02.363Z,99723.06
2022-12-08T23:52:08.336Z,99716.98
2022-12-08T23:55:14.118Z,99717.42
2022-12-08T23:58:19.556Z,99719.77
